Time;durP1;ratioP1;P1;durP2;ratioP2;P2;SDS_P1;SDS_P2;PMS_P1;PMS_P2;Temp;Humidity;BMP_temperature;BMP_pressure;BME280_temperature;BME280_humidity;BME280_pressure;Samples;Min_cycle;Max_cycle;Signal;HPM_P1;HPM_P2
2022/05/05 00:02:18;;;;;;;20.27;8.32;;;0.20;1.00;;;0.57;79.49;100027.34;5034132;27;125966;-74
2022/05/05 00:04:47;;;;;;;15.15;7.00;;;0.10;1.00;;;0.55;79.65;100034.78;5036140;27;130025;-74
2022/05/05 00:07:15;;;;;;;19.77;8.48;;;0.00;1.00;;;0.56;79.30;100031.06;5034524;27;129581;-74
2022/05/05 00:09:44;;;;;;;18.88;7.20;;;0.00;1.00;;;0.48;80.06;100029.56;5036222;27;125419;-70
2022/05/05 00:14:58;;;;;;;15.82;7.78;;;0.20;1.00;;;0.35;80.91;100035.94;5033280;27;129442;-72
2022/05/05 00:17:28;;;;;;;19.10;8.57;;;0.20;1.00;;;0.33;80.22;100031.88;5039692;27;129666;-70
2022/05/05 00:19:57;;;;;;;13.43;7.97;;;0.10;1.00;;;0.29;80.60;100044.06;5039239;27;125832;-72
2022/05/05 00:22:25;;;;;;;14.23;7.25;;;0.10;1.00;;;0.25;81.05;100043.72;5037356;27;125486;-71
2022/05/05 00:24:54;;;;;;;16.00;7.90;;;0.00;1.00;;;0.24;81.17;100043.94;5037225;27;129813;-74
2022/05/05 00:27:23;;;;;;;14.13;7.07;;;0.00;1.00;;;0.22;81.46;100046.84;5037950;27;129823;-75
2022/05/05 00:29:54;;;;;;;18.23;7.47;;;0.00;1.00;;;0.27;81.40;100049.63;5040839;27;125688;-75
2022/05/05 00:32:22;;;;;;;15.88;7.80;;;-0.10;1.00;;;0.29;81.56;100049.41;5037855;27;125786;-74
2022/05/05 00:34:53;;;;;;;16.30;7.75;;;-0.10;1.00;;;0.24;82.88;100044.75;5036806;27;130486;-73
2022/05/05 00:37:21;;;;;;;15.57;6.82;;;-0.10;1.00;;;0.24;82.44;100050.09;5037282;27;129838;-73
2022/05/05 00:39:50;;;;;;;17.10;7.28;;;-0.20;1.00;;;0.23;82.51;100043.09;5036848;27;126185;-72
2022/05/05 00:42:19;;;;;;;18.00;7.53;;;-0.30;1.00;;;0.23;82.69;100048.44;5037163;27;127164;-73
2022/05/05 00:44:47;;;;;;;14.38;7.18;;;-0.30;1.00;;;0.21;82.71;100050.53;5021826;27;129063;-72
2022/05/05 00:47:17;;;;;;;20.10;8.25;;;-0.30;1.00;;;0.17;82.37;100057.38;5038306;27;130115;-73
2022/05/05 00:49:49;;;;;;;16.90;7.70;;;-0.30;1.00;;;0.13;82.48;100058.88;5037071;27;126037;-73
2022/05/05 00:52:19;;;;;;;16.17;8.18;;;-0.30;1.00;;;0.12;82.31;100058.06;5021769;27;124293;-73
2022/05/05 00:54:48;;;;;;;18.85;7.43;;;-0.40;1.00;;;0.10;82.33;100056.69;5021364;27;128670;-73
2022/05/05 00:57:16;;;;;;;16.48;7.78;;;-0.40;1.00;;;0.13;82.58;100064.22;5018690;27;129841;-71
2022/05/05 00:59:45;;;;;;;18.27;7.90;;;-0.40;1.00;;;0.11;82.87;100060.97;5021522;27;125497;-73
2022/05/05 01:02:14;;;;;;;15.93;7.05;;;-0.40;1.00;;;0.06;82.69;100061.63;5036530;27;126020;-72
2022/05/05 01:04:43;;;;;;;11.77;6.82;;;-0.40;1.00;;;0.02;83.16;100073.00;5021231;27;129661;-72
2022/05/05 01:07:11;;;;;;;15.20;8.02;;;-0.40;1.00;;;-0.04;83.89;100074.75;5021397;27;129065;-72
2022/05/05 01:09:42;;;;;;;16.65;7.50;;;-0.40;1.00;;;-0.07;84.20;100072.53;5038280;27;125389;-73
2022/05/05 01:12:11;;;;;;;15.73;7.63;;;-0.40;1.00;;;-0.08;83.64;100089.56;5021738;27;124624;-72
2022/05/05 01:14:40;;;;;;;15.45;7.55;;;-0.50;1.00;;;-0.07;83.39;100078.66;5036219;27;129973;-72
2022/05/05 01:17:09;;;;;;;14.70;7.22;;;-0.60;1.00;;;-0.12;83.51;100077.72;5036495;27;129943;-72
2022/05/05 01:19:38;;;;;;;12.80;7.03;;;-0.50;1.00;;;-0.13;83.98;100087.56;5021748;27;124710;-74
2022/05/05 01:22:07;;;;;;;14.73;6.93;;;-0.60;1.00;;;-0.12;84.02;100072.41;5039898;27;125220;-74
2022/05/05 01:30:09;;;;;;;15.20;7.63;;;-0.60;1.00;;;-0.21;84.31;100082.56;5035914;27;126457;-74
2022/05/05 01:32:37;;;;;;;14.90;7.88;;;-0.70;1.00;;;-0.23;84.74;100087.31;5036279;27;126079;-75
2022/05/05 01:35:07;;;;;;;14.70;7.50;;;-0.60;1.00;;;-0.25;84.81;100084.03;5036381;27;130434;-73
2022/05/05 01:37:37;;;;;;;15.98;7.55;;;-0.60;1.00;;;-0.27;84.63;100086.13;5036102;27;131266;-74
2022/05/05 01:40:07;;;;;;;15.30;7.75;;;-0.60;1.00;;;-0.32;84.45;100078.81;5035923;27;125578;-74
2022/05/05 01:42:38;;;;;;;16.13;7.18;;;-0.70;1.00;;;-0.34;84.94;100091.56;5038183;27;125483;-73
2022/05/05 01:45:08;;;;;;;13.73;7.32;;;-0.70;1.00;;;-0.34;84.56;100080.88;5035938;27;130484;-73
2022/05/05 01:47:37;;;;;;;16.13;7.15;;;-0.70;1.00;;;-0.33;84.80;100087.03;5038184;27;129958;-73
2022/05/05 01:50:07;;;;;;;19.52;7.75;;;-0.80;1.00;;;-0.35;84.79;100089.13;5018027;27;125932;-73
2022/05/05 01:52:36;;;;;;;15.27;7.70;;;-0.70;1.00;;;-0.38;85.14;100088.50;5035777;27;125789;-73
2022/05/05 01:55:06;;;;;;;12.15;6.75;;;-0.80;1.00;;;-0.42;85.00;100100.69;5035152;27;129860;-75
2022/05/05 01:57:35;;;;;;;13.63;7.85;;;-0.80;1.00;;;-0.43;85.30;100099.03;5021383;27;130116;-73
2022/05/05 02:00:05;;;;;;;15.88;7.47;;;-0.80;1.00;;;-0.48;85.63;100100.75;5034394;27;125271;-73
2022/05/05 02:02:43;;;;;;;14.27;6.50;;;-0.80;1.00;;;-0.54;85.73;100102.47;5020785;27;124429;-74
2022/05/05 02:05:12;;;;;;;17.60;7.28;;;-0.80;1.00;;;-0.53;85.87;100103.28;5035777;27;130288;-74
2022/05/05 02:07:44;;;;;;;15.38;7.28;;;-0.90;1.00;;;-0.56;86.28;100104.56;5035574;27;129482;-73
2022/05/05 02:10:16;;;;;;;12.55;6.72;;;-0.80;1.00;;;-0.60;86.93;100104.16;5035727;27;125644;-75
2022/05/05 02:12:46;;;;;;;15.70;7.43;;;-0.80;1.00;;;-0.59;86.47;100110.34;5036021;27;125668;-73
2022/05/05 02:15:16;;;;;;;16.73;7.50;;;-0.80;1.00;;;-0.58;86.97;100109.28;5035466;27;129596;-74
2022/05/05 02:17:45;;;;;;;14.35;7.15;;;-0.80;1.00;;;-0.56;87.44;100107.22;5020502;27;128367;-75
2022/05/05 02:20:14;;;;;;;15.45;7.40;;;-0.80;1.00;;;-0.54;87.31;100099.81;5016819;27;127429;-75
2022/05/05 02:22:44;;;;;;;15.35;7.32;;;-0.80;1.00;;;-0.51;86.49;100102.03;5035600;27;126889;-73
2022/05/05 02:25:13;;;;;;;13.63;7.47;;;-0.80;1.00;;;-0.50;86.26;100103.63;5038655;27;130148;-75
2022/05/05 02:27:49;;;;;;;12.57;7.75;;;-0.80;1.00;;;-0.46;86.50;100115.50;5035136;27;129924;-74
2022/05/05 02:30:20;;;;;;;18.83;9.75;;;-0.80;1.00;;;-0.43;86.33;100109.72;5035602;27;125978;-74
2022/05/05 02:32:50;;;;;;;15.13;7.50;;;-0.80;1.00;;;-0.41;86.66;100104.97;5035517;27;125535;-74
2022/05/05 02:35:19;;;;;;;14.95;7.95;;;-0.80;1.00;;;-0.39;87.21;100108.22;5032710;27;130092;-74
2022/05/05 02:40:35;;;;;;;15.57;7.55;;;-0.70;1.00;;;-0.32;87.35;100115.34;5014738;27;126315;-76
2022/05/05 02:43:04;;;;;;;20.08;8.40;;;-0.70;1.00;;;-0.29;87.39;100114.91;5035107;27;125646;-74
2022/05/05 02:45:33;;;;;;;16.20;9.07;;;-0.70;1.00;;;-0.21;86.99;100122.56;5019712;27;130719;-74
2022/05/05 02:48:02;;;;;;;19.00;8.02;;;-0.70;1.00;;;-0.20;86.96;100129.56;5019200;27;129463;-75
2022/05/05 02:50:33;;;;;;;16.75;7.65;;;-0.70;1.00;;;-0.13;86.76;100130.25;5014435;28;125746;-75
2022/05/05 02:54:47;;;;;;;14.90;7.13;;;-0.60;1.00;;;-0.10;86.80;100132.47;4998611;28;124248;-75
2022/05/05 02:55:51;;;;;;;14.52;7.85;;;-0.50;1.00;;;0.05;86.88;100134.75;5016042;28;129820;-74
2022/05/05 02:58:19;;;;;;;22.15;8.35;;;-0.50;1.00;;;0.16;86.55;100133.97;5000236;28;128758;-74
2022/05/05 03:00:48;;;;;;;14.55;7.10;;;-0.40;1.00;;;0.30;86.42;100134.59;4996745;28;127108;-75
2022/05/05 03:03:16;;;;;;;15.98;7.72;;;-0.30;1.00;;;0.51;86.42;100135.13;5013843;28;125528;-74
2022/05/05 03:05:45;;;;;;;13.35;7.57;;;-0.10;1.00;;;0.77;85.95;100136.56;5015402;28;130282;-73
2022/05/05 03:08:14;;;;;;;15.13;7.60;;;0.10;1.00;;;1.08;85.46;100135.41;5016166;28;129036;-72
2022/05/05 03:10:43;;;;;;;16.58;7.90;;;0.30;1.00;;;1.57;84.62;100142.31;5014181;28;126710;-74
2022/05/05 03:13:12;;;;;;;16.25;8.60;;;0.60;1.00;;;1.98;83.09;100149.31;5014658;28;126947;-74
2022/05/05 03:15:40;;;;;;;15.90;8.60;;;0.90;1.00;;;2.22;80.43;100146.53;5014230;28;130031;-74
2022/05/05 03:18:09;;;;;;;15.10;7.90;;;1.10;1.00;;;2.34;79.25;100149.16;5014784;28;129679;-71
2022/05/05 03:20:37;;;;;;;16.58;8.50;;;1.10;1.00;;;2.39;78.00;100148.44;5015065;28;126261;-73
2022/05/05 03:23:06;;;;;;;17.60;8.15;;;1.00;1.00;;;2.33;78.08;100152.88;5010155;28;125238;-73
2022/05/05 03:25:37;;;;;;;22.20;9.10;;;0.90;1.00;;;2.33;77.81;100152.88;5014047;28;130139;-72
2022/05/05 03:28:06;;;;;;;16.20;8.38;;;1.00;1.00;;;2.28;77.86;100158.97;5015325;28;129680;-73
2022/05/05 03:30:35;;;;;;;16.83;8.75;;;1.00;1.00;;;2.28;78.15;100152.81;5000174;28;125404;-73
2022/05/05 03:33:04;;;;;;;16.88;8.65;;;1.10;1.00;;;2.35;78.52;100153.44;5014688;28;125515;-73
2022/05/05 03:35:33;;;;;;;17.92;9.85;;;1.20;1.00;;;2.43;78.24;100161.09;5012522;28;129952;-72
2022/05/05 03:38:02;;;;;;;18.70;8.95;;;1.30;1.00;;;2.54;78.13;100161.28;4999711;28;130307;-73
2022/05/05 03:40:30;;;;;;;19.75;9.98;;;1.40;1.00;;;2.62;77.48;100160.91;5014261;28;126268;-73
2022/05/05 03:43:01;;;;;;;17.58;9.70;;;1.50;1.00;;;2.70;77.31;100165.84;4999551;28;125392;-74
2022/05/05 03:45:29;;;;;;;24.80;9.48;;;1.60;1.00;;;2.73;77.06;100168.03;5013704;28;130331;-73
2022/05/05 03:47:57;;;;;;;21.20;10.60;;;1.60;1.00;;;2.71;77.20;100167.44;4998925;27;129290;-73
2022/05/05 03:50:26;;;;;;;15.55;9.23;;;1.70;1.00;;;2.78;77.07;100162.75;5019768;27;125890;-72
2022/05/05 03:52:55;;;;;;;17.40;9.98;;;1.70;1.00;;;2.86;76.88;100178.44;5020151;27;125764;-73
2022/05/05 03:55:23;;;;;;;17.40;9.40;;;1.80;1.00;;;3.04;76.61;100171.22;5023436;27;129666;-71
2022/05/05 03:57:53;;;;;;;20.67;9.73;;;2.00;1.00;;;3.14;76.56;100176.72;5042767;27;103166;-72
2022/05/05 04:00:23;;;;;;;19.48;10.50;;;2.00;1.00;;;3.35;75.94;100177.00;5037991;27;126840;-72
2022/05/05 04:05:34;;;;;;;16.92;9.73;;;2.40;1.00;;;3.58;75.07;100182.19;5039437;27;130484;-73
2022/05/05 04:08:03;;;;;;;18.08;8.95;;;2.50;1.00;;;3.68;74.50;100181.50;5022983;27;129781;-74
2022/05/05 04:10:32;;;;;;;18.20;8.95;;;2.60;1.00;;;3.78;74.66;100189.66;5037506;27;126591;-73
2022/05/05 04:13:01;;;;;;;20.30;9.40;;;2.70;1.00;;;3.95;74.11;100186.91;5037945;27;125303;-72
2022/05/05 04:15:33;;;;;;;19.52;9.85;;;2.80;1.00;;;4.08;73.77;100188.44;5021568;27;129514;-73
2022/05/05 04:18:02;;;;;;;16.33;9.00;;;2.90;1.00;;;4.27;72.94;100188.91;5019734;27;129395;-73
2022/05/05 04:20:30;;;;;;;18.05;9.05;;;3.00;1.00;;;4.42;73.03;100195.50;5040280;27;127123;-74
2022/05/05 04:22:59;;;;;;;16.30;8.27;;;3.20;1.00;;;4.62;72.24;100190.31;5021877;27;126373;-74
2022/05/05 04:25:27;;;;;;;19.20;9.18;;;3.40;1.00;;;4.92;71.37;100199.69;5037176;27;130253;-73
2022/05/05 04:27:57;;;;;;;18.20;8.52;;;3.70;1.00;;;5.04;71.07;100197.66;5037324;27;129580;-74
2022/05/05 04:30:25;;;;;;;16.25;7.85;;;3.80;1.00;;;5.19;70.33;100183.50;5037335;27;125199;-74
2022/05/05 04:32:56;;;;;;;17.63;8.25;;;3.90;1.00;;;5.37;70.23;100193.03;5037425;27;125515;-74
2022/05/05 04:35:25;;;;;;;13.93;8.60;;;4.10;1.00;;;5.66;69.42;100183.78;5021992;27;129591;-74
2022/05/05 04:37:54;;;;;;;19.02;9.18;;;4.40;1.00;;;6.04;68.46;100188.00;5022314;27;128969;-73
2022/05/05 04:40:24;;;;;;;16.83;8.25;;;4.70;1.00;;;6.30;66.99;100196.19;5037750;27;125769;-74
2022/05/05 04:42:52;;;;;;;13.93;8.13;;;4.90;1.00;;;6.45;66.54;100193.50;5022507;27;124717;-73
2022/05/05 04:45:21;;;;;;;15.82;9.00;;;5.10;1.00;;;6.68;65.53;100202.16;5019284;27;129998;-74
2022/05/05 04:47:50;;;;;;;12.63;8.63;;;5.50;1.00;;;6.91;64.50;100203.53;5018529;28;128609;-74
2022/05/05 04:50:20;;;;;;;15.70;8.75;;;5.60;1.00;;;7.28;63.34;100210.53;5016916;28;126601;-73
2022/05/05 04:52:49;;;;;;;16.55;8.63;;;5.90;1.00;;;7.49;60.27;100205.91;5017099;28;126140;-73
2022/05/05 04:55:18;;;;;;;14.68;5.75;;;6.10;1.00;;;7.72;54.65;100215.28;5016675;28;129763;-75
2022/05/05 04:57:46;;;;;;;7.38;3.47;;;6.30;1.00;;;7.90;48.15;100205.78;5016657;28;130106;-74
2022/05/05 05:00:16;;;;;;;7.18;3.45;;;6.70;1.00;;;8.22;47.54;100199.16;5017061;28;126432;-74
2022/05/05 05:02:45;;;;;;;8.40;3.05;;;7.00;1.00;;;8.41;43.30;100206.63;5017932;28;125453;-74
2022/05/05 05:05:13;;;;;;;5.05;2.88;;;7.20;1.00;;;8.55;40.78;100199.53;5016545;28;130750;-73
2022/05/05 05:07:43;;;;;;;6.03;2.85;;;7.30;1.00;;;8.77;39.51;100201.84;5016793;28;130136;-73
2022/05/05 05:10:12;;;;;;;7.68;2.80;;;7.50;1.00;;;8.92;38.77;100198.19;5016580;28;126472;-75
2022/05/05 05:12:41;;;;;;;7.57;2.70;;;7.60;1.00;;;9.09;37.77;100202.38;5016578;28;126045;-74
2022/05/05 05:15:10;;;;;;;8.15;2.60;;;7.70;1.00;;;9.09;37.72;100194.25;5016091;28;129959;-72
2022/05/05 05:17:39;;;;;;;4.57;2.28;;;7.80;1.00;;;9.20;37.49;100198.50;5018173;28;130127;-74
2022/05/05 05:20:10;;;;;;;6.50;2.38;;;7.90;1.00;;;9.34;37.96;100194.00;5016707;28;125992;-75
2022/05/05 05:22:38;;;;;;;5.22;2.40;;;8.10;1.00;;;9.51;36.87;100199.00;5016710;28;125648;-76
2022/05/05 05:25:09;;;;;;;7.13;2.67;;;8.20;1.00;;;9.79;36.59;100193.00;5016192;28;130091;-73
2022/05/05 05:27:38;;;;;;;4.30;2.40;;;8.30;1.00;;;9.78;35.65;100192.19;5016463;28;130775;-74
2022/05/05 05:30:07;;;;;;;7.07;2.15;;;8.30;99.90;;;9.66;35.34;100189.06;5018130;28;125837;-74
2022/05/05 05:32:37;;;;;;;6.22;2.20;;;8.40;99.90;;;9.82;35.03;100195.16;5019833;28;125517;-73
2022/05/05 05:35:06;;;;;;;8.73;2.10;;;8.50;99.90;;;9.68;34.45;100200.47;5016051;28;130592;-72
2022/05/05 05:37:35;;;;;;;9.68;2.38;;;8.30;99.90;;;9.62;34.40;100194.28;5016159;28;129856;-75
2022/05/05 05:40:05;;;;;;;4.97;1.95;;;8.50;99.90;;;9.65;34.77;100193.69;5018470;28;126570;-74
2022/05/05 05:42:35;;;;;;;4.82;2.40;;;8.60;99.90;;;9.90;35.00;100194.50;5018573;28;125258;-73
2022/05/05 05:45:07;;;;;;;5.30;2.17;;;8.70;99.90;;;10.01;34.04;100190.56;5019582;28;131118;-76
2022/05/05 05:47:36;;;;;;;7.47;2.25;;;8.80;99.90;;;9.85;34.37;100198.06;5016616;28;131098;-73
2022/05/05 05:50:06;;;;;;;9.57;2.10;;;8.80;99.90;;;9.95;33.79;100191.72;5019427;28;125280;-74
2022/05/05 05:52:35;;;;;;;6.18;2.10;;;8.70;99.90;;;10.14;34.20;100193.66;5015976;28;125944;-73
2022/05/05 05:55:04;;;;;;;5.03;2.22;;;8.90;99.90;;;10.38;33.63;100197.16;5016007;28;129783;-72
2022/05/05 05:57:35;;;;;;;7.55;2.60;;;9.10;99.90;;;10.60;33.68;100201.19;5016177;28;129703;-74
2022/05/05 06:00:04;;;;;;;8.60;2.20;;;9.10;99.90;;;10.68;33.03;100189.66;5016032;28;125785;-74
2022/05/05 06:05:26;;;;;;;5.63;1.90;;;9.10;99.90;;;10.25;33.09;100195.13;5015425;28;131318;-71
2022/05/05 06:07:59;;;;;;;4.80;1.95;;;8.90;99.90;;;10.46;33.05;100194.91;5015541;28;129676;-73
2022/05/05 06:10:28;;;;;;;5.03;1.88;;;9.10;99.90;;;10.48;32.65;100189.97;5015606;28;125981;-75
2022/05/05 06:12:59;;;;;;;6.95;2.00;;;9.10;99.90;;;10.54;33.37;100196.94;5017697;28;124561;-74
2022/05/05 06:15:28;;;;;;;5.45;2.35;;;9.20;99.90;;;10.79;32.78;100193.81;5015372;28;130892;-74
2022/05/05 06:17:56;;;;;;;6.15;2.08;;;9.40;99.90;;;10.87;32.52;100194.25;5000851;28;130005;-73
2022/05/05 06:20:25;;;;;;;4.25;1.80;;;9.50;99.90;;;10.75;31.94;100198.25;5015251;28;125583;-76
2022/05/05 06:22:54;;;;;;;3.97;1.80;;;9.40;99.90;;;10.97;32.37;100208.47;5015840;28;125823;-75
2022/05/05 06:25:23;;;;;;;3.88;1.80;;;9.60;99.90;;;10.90;31.43;100204.53;5015468;28;129967;-74
2022/05/05 06:27:53;;;;;;;4.43;2.10;;;9.50;99.90;;;11.21;31.92;100195.88;5000613;28;128590;-73
2022/05/05 06:30:22;;;;;;;4.90;1.85;;;9.70;99.90;;;11.23;32.15;100191.72;5000077;28;125958;-74
2022/05/05 06:32:51;;;;;;;4.45;1.90;;;9.80;99.90;;;11.45;31.92;100201.97;5015399;28;126248;-76
2022/05/05 06:35:19;;;;;;;3.85;1.85;;;10.00;99.90;;;11.49;31.88;100202.97;5015269;28;129990;-74
2022/05/05 06:37:50;;;;;;;6.65;2.60;;;10.10;99.90;;;11.66;31.42;100199.66;5015144;28;130213;-74
2022/05/05 06:40:19;;;;;;;3.38;1.60;;;10.10;99.90;;;11.56;31.10;100193.59;4997565;28;125930;-74
2022/05/05 06:42:48;;;;;;;4.88;1.90;;;10.10;99.90;;;11.63;31.61;100194.03;4997674;28;126470;-75
2022/05/05 06:45:17;;;;;;;4.50;1.98;;;10.20;99.90;;;11.83;31.52;100196.34;5015453;28;129951;-74
2022/05/05 06:47:46;;;;;;;4.40;1.95;;;10.20;99.90;;;12.07;31.43;100192.59;5019465;27;130250;-76
2022/05/05 06:50:16;;;;;;;5.55;2.35;;;10.30;99.90;;;12.22;30.57;100205.88;5016656;28;125739;-76
2022/05/05 06:52:44;;;;;;;3.65;1.70;;;10.50;99.90;;;12.35;30.71;100200.72;5015058;28;125522;-75
2022/05/05 06:55:13;;;;;;;3.80;1.92;;;10.60;99.90;;;12.42;29.71;100201.13;4999123;28;128438;-73
2022/05/05 06:57:41;;;;;;;4.40;1.70;;;10.60;99.90;;;12.17;29.00;100202.47;5014999;28;129978;-73
2022/05/05 07:00:11;;;;;;;3.30;1.60;;;10.50;99.90;;;12.36;30.47;100205.06;5014924;28;125961;-75
2022/05/05 07:02:39;;;;;;;4.13;1.70;;;10.70;99.90;;;12.57;29.88;100210.84;5015146;28;125528;-75
2022/05/05 07:05:26;;;;;;;4.47;1.92;;;10.70;99.90;;;12.43;29.41;100216.31;5014708;28;130568;-73
2022/05/05 07:07:55;;;;;;;5.47;1.80;;;10.80;99.90;;;12.51;28.72;100204.72;5014798;28;130185;-73
2022/05/05 07:13:09;;;;;;;5.40;1.58;;;10.70;99.90;;;12.57;28.69;100205.41;5015246;28;126479;-74
2022/05/05 07:15:38;;;;;;;5.55;1.75;;;10.70;99.90;;;12.55;29.39;100213.88;4996774;28;130328;-73
2022/05/05 07:18:07;;;;;;;4.20;1.70;;;10.70;99.90;;;12.82;29.51;100206.72;5014204;28;129695;-74
2022/05/05 07:20:37;;;;;;;5.57;1.45;;;10.90;99.90;;;13.01;28.85;100203.00;5014242;28;126353;-73
2022/05/05 07:23:10;;;;;;;6.72;2.00;;;10.90;99.90;;;13.22;28.88;100203.31;5014722;28;126131;-75
2022/05/05 07:25:39;;;;;;;4.13;1.85;;;11.30;99.90;;;13.29;28.63;100204.47;5014752;28;130790;-73
2022/05/05 07:28:07;;;;;;;3.42;1.50;;;11.30;99.90;;;13.41;27.17;100200.38;5017907;28;129494;-75
2022/05/05 07:30:37;;;;;;;2.42;1.17;;;11.40;99.90;;;13.37;27.08;100202.13;5018184;28;126038;-74
2022/05/05 07:33:06;;;;;;;3.17;1.20;;;11.40;99.90;;;13.36;26.48;100200.53;5018491;28;125903;-73
2022/05/05 07:35:38;;;;;;;3.47;1.55;;;11.40;99.90;;;13.22;27.93;100197.84;5003170;28;130655;-73
2022/05/05 07:38:06;;;;;;;4.35;1.70;;;11.30;99.90;;;13.47;27.78;100193.69;5000191;28;130128;-74
2022/05/05 07:40:35;;;;;;;2.75;1.23;;;11.60;99.90;;;13.64;27.03;100204.66;5003222;28;126032;-72
2022/05/05 07:43:03;;;;;;;3.97;1.58;;;11.70;99.90;;;13.75;26.91;100207.13;5003438;28;125495;-76
2022/05/05 07:45:31;;;;;;;3.53;1.60;;;11.70;99.90;;;13.73;26.33;100206.59;4992803;28;131231;-76
2022/05/05 07:48:01;;;;;;;5.05;1.65;;;11.70;99.90;;;13.65;25.84;100195.38;5018946;27;129511;-75
2022/05/05 07:50:30;;;;;;;4.30;1.60;;;11.40;99.90;;;13.46;27.65;100192.06;5017858;28;125954;-76
2022/05/05 07:53:00;;;;;;;3.88;1.80;;;11.40;99.90;;;13.66;27.60;100194.25;5018070;28;126041;-75
2022/05/05 07:55:29;;;;;;;4.32;1.60;;;11.70;99.90;;;14.00;27.33;100184.53;5018202;28;131382;-75
2022/05/05 07:57:58;;;;;;;6.18;1.70;;;11.90;99.90;;;14.16;26.60;100186.81;5002733;28;128279;-76
2022/05/05 08:00:26;;;;;;;4.65;1.95;;;11.90;99.90;;;14.36;26.77;100190.88;5002992;28;126256;-76
2022/05/05 08:02:55;;;;;;;5.30;1.27;;;12.10;99.90;;;14.24;26.16;100188.75;5017845;28;125735;-75
2022/05/05 08:05:23;;;;;;;3.75;1.25;;;11.80;99.90;;;14.13;26.81;100185.56;5017207;28;130062;-75
2022/05/05 08:07:52;;;;;;;4.47;1.63;;;11.90;99.90;;;14.05;26.04;100191.78;5017504;28;129676;-75
2022/05/05 08:10:22;;;;;;;5.30;1.70;;;11.90;99.90;;;14.03;26.81;100186.63;5017320;28;127342;-76
2022/05/05 08:12:51;;;;;;;2.38;1.40;;;11.90;99.90;;;14.01;26.72;100194.34;5017420;28;126217;-76
2022/05/05 08:15:19;;;;;;;3.00;1.30;;;12.10;99.90;;;14.23;25.72;100181.72;5017935;28;130569;-76
2022/05/05 08:17:48;;;;;;;3.38;1.70;;;12.00;99.90;;;14.26;26.63;100185.72;5002546;28;129401;-75
2022/05/05 08:20:17;;;;;;;3.50;1.63;;;12.10;99.90;;;14.58;26.01;100181.72;5002842;28;125088;-76
2022/05/05 08:22:46;;;;;;;3.30;1.38;;;12.40;99.90;;;14.88;26.47;100173.69;5017628;28;125740;-76
2022/05/05 08:30:48;;;;;;;5.25;1.40;;;12.60;99.90;;;14.72;26.46;100170.66;5002556;28;124512;-76
2022/05/05 08:33:17;;;;;;;3.22;1.63;;;12.50;99.90;;;14.55;24.99;100165.97;5017511;28;126434;-75
2022/05/05 08:35:45;;;;;;;3.70;1.60;;;12.30;99.90;;;14.48;25.87;100165.66;4998692;28;130138;-76
2022/05/05 08:38:14;;;;;;;4.53;1.95;;;11.80;99.90;;;14.77;26.25;100166.94;5016956;28;130566;-75
2022/05/05 08:40:43;;;;;;;3.97;1.55;;;12.30;99.90;;;14.96;26.88;100164.69;5017758;28;126255;-78
2022/05/05 08:43:14;;;;;;;4.15;1.48;;;12.60;99.90;;;15.27;25.46;100169.13;5002446;28;124651;-76
2022/05/05 08:45:45;;;;;;;3.20;1.52;;;12.70;99.90;;;15.12;24.79;100155.97;5017201;28;129907;-76
2022/05/05 08:48:14;;;;;;;7.00;2.35;;;12.50;99.90;;;15.01;26.23;100161.78;5039950;27;129256;-75
2022/05/05 08:50:45;;;;;;;5.32;1.95;;;12.50;99.90;;;15.13;26.74;100168.50;5037245;27;125901;-77
2022/05/05 08:53:16;;;;;;;8.55;2.00;;;12.70;99.90;;;14.82;25.57;100156.66;5037398;27;126264;-76
2022/05/05 08:55:45;;;;;;;4.07;1.70;;;12.40;99.90;;;14.92;25.58;100163.72;5036935;27;129851;-75
2022/05/05 08:58:16;;;;;;;5.85;1.80;;;12.10;99.90;;;14.82;25.65;100153.13;5037305;27;130212;-76
2022/05/05 09:00:45;;;;;;;5.57;2.33;;;12.00;99.90;;;15.01;25.78;100156.31;5034326;27;126353;-75
2022/05/05 09:03:13;;;;;;;7.63;2.33;;;11.90;99.90;;;15.42;26.55;100160.34;5016586;28;125977;-77
2022/05/05 09:05:51;;;;;;;2.88;1.52;;;12.70;99.90;;;15.36;25.73;100161.66;5016173;28;130628;-76
2022/05/05 09:08:32;;;;;;;3.15;1.48;;;13.00;99.90;;;15.23;25.77;100163.47;5016401;28;130126;-75
2022/05/05 09:11:02;;;;;;;4.65;2.00;;;13.20;99.90;;;15.30;25.15;100153.97;5016266;28;125223;-72
2022/05/05 09:13:34;;;;;;;3.95;1.80;;;12.70;99.90;;;15.49;25.77;100162.59;5001620;28;126818;-74
2022/05/05 09:16:03;;;;;;;5.50;2.00;;;13.10;99.90;;;15.69;25.40;100163.78;5016241;28;130231;-74
2022/05/05 09:18:34;;;;;;;3.97;1.75;;;13.30;99.90;;;15.73;25.69;100170.19;5016240;28;129584;-73
2022/05/05 09:21:04;;;;;;;3.80;1.77;;;13.70;99.90;;;15.94;25.12;100156.59;5016113;28;125898;-75
2022/05/05 09:23:36;;;;;;;5.00;2.22;;;13.30;99.90;;;15.70;24.58;100167.31;5001705;28;124376;-73
2022/05/05 09:26:06;;;;;;;3.33;1.50;;;12.90;99.90;;;15.90;24.64;100154.84;5015948;28;129819;-73
2022/05/05 09:28:37;;;;;;;6.00;1.60;;;12.40;99.90;;;16.04;24.25;100141.72;5016021;28;130533;-73
2022/05/05 09:31:08;;;;;;;4.90;1.70;;;12.30;99.90;;;15.72;25.01;100149.47;5016191;28;125949;-75
2022/05/05 09:33:43;;;;;;;4.38;1.95;;;12.80;99.90;;;15.89;26.14;100145.81;5015342;28;125853;-73
2022/05/05 09:36:15;;;;;;;3.80;1.65;;;13.40;99.90;;;16.20;25.14;100146.59;5016408;28;130137;-76
2022/05/05 09:38:54;;;;;;;7.13;2.22;;;13.70;99.90;;;16.38;26.02;100156.28;5016335;28;129374;-73
2022/05/05 09:41:25;;;;;;;5.57;2.40;;;14.10;99.90;;;15.81;24.82;100150.22;5016097;28;126129;-76
2022/05/05 09:43:58;;;;;;;4.90;2.00;;;13.20;99.90;;;15.81;25.22;100150.22;5029809;27;126582;-75
2022/05/05 09:46:34;;;;;;;4.95;2.13;;;13.10;99.90;;;16.16;25.77;100154.69;5036958;27;128798;-74
2022/05/05 09:49:12;;;;;;;6.30;1.65;;;13.30;99.90;;;15.85;23.94;100146.81;5017178;27;130199;-73
2022/05/05 09:51:44;;;;;;;5.60;2.20;;;12.90;99.90;;;15.57;24.59;100152.75;5035650;27;126502;-75
2022/05/05 09:59:52;;;;;;;4.90;2.03;;;13.60;99.90;;;16.64;25.17;100133.34;5036370;27;129411;-74
2022/05/05 10:05:14;;;;;;;4.53;1.50;;;14.40;99.90;;;17.15;23.67;100133.97;5018014;27;125964;-75
2022/05/05 10:07:45;;;;;;;4.60;1.83;;;14.00;99.90;;;17.26;25.50;100134.31;5036162;27;131120;-75
2022/05/05 10:10:17;;;;;;;6.70;2.00;;;14.50;99.90;;;17.35;24.67;100131.47;5035861;27;130508;-73
2022/05/05 10:12:47;;;;;;;5.78;1.60;;;14.80;99.90;;;17.13;24.48;100130.75;5035860;27;125601;-77
2022/05/05 10:15:17;;;;;;;4.68;2.05;;;14.30;99.90;;;16.82;24.64;100140.25;5035295;27;125805;-74
2022/05/05 10:17:46;;;;;;;3.65;1.95;;;13.90;99.90;;;16.88;25.36;100135.41;5034585;27;129564;-74
2022/05/05 10:20:15;;;;;;;6.10;2.17;;;14.30;99.90;;;16.84;24.84;100138.00;5020785;27;129178;-73
2022/05/05 10:22:57;;;;;;;4.53;1.75;;;14.30;99.90;;;17.21;24.15;100120.84;5035586;27;125456;-73
2022/05/05 10:25:27;;;;;;;4.13;1.80;;;14.30;99.90;;;17.28;23.61;100125.75;5035554;27;125100;-73
2022/05/05 10:27:56;;;;;;;4.13;1.75;;;14.00;99.90;;;17.53;23.64;100124.63;5020610;27;129839;-73
2022/05/05 10:30:43;;;;;;;4.70;1.67;;;14.10;99.90;;;17.34;23.95;100129.88;5020484;27;129634;-72
2022/05/05 10:33:12;;;;;;;4.72;1.70;;;14.40;99.90;;;17.48;23.00;100124.84;5035669;27;125818;-72
2022/05/05 10:35:47;;;;;;;4.30;1.80;;;14.30;99.90;;;17.36;24.92;100116.63;5020884;27;125829;-74
2022/05/05 10:38:41;;;;;;;4.15;1.80;;;13.80;99.90;;;17.31;24.62;100119.56;5035137;27;130728;-74
2022/05/05 10:41:36;;;;;;;6.03;1.65;;;14.50;99.90;;;17.57;25.18;100111.81;5020235;27;128557;-74
2022/05/05 10:44:25;;;;;;;4.97;1.83;;;15.00;99.90;;;17.86;23.95;100109.97;5035033;27;126864;-74
2022/05/05 10:47:03;;;;;;;3.72;1.52;;;15.20;99.90;;;17.83;23.33;100102.41;5036375;27;126355;-72
2022/05/05 10:49:46;;;;;;;5.22;1.67;;;15.00;99.90;;;17.32;23.20;100096.50;5035237;27;130228;-75
2022/05/05 10:52:31;;;;;;;5.30;1.63;;;14.20;99.90;;;17.23;23.90;100097.41;5016888;27;130455;-76
2022/05/05 10:55:26;;;;;;;3.53;1.50;;;14.40;99.90;;;17.20;23.78;100103.59;5020866;27;125763;-78
2022/05/05 10:57:55;;;;;;;4.32;1.70;;;14.80;99.90;;;16.83;24.70;100108.19;5037390;27;124641;-76